sensor_id;sensor_type;location;lat;lon;timestamp;pressure;altitude;pressure_sealevel;temperature;humidity
10462;BME280;5278;42.656;23.374;2023-11-19T00:02:25;94473.81;;;5.12;75.48
10462;BME280;5278;42.656;23.374;2023-11-19T00:04:52;94564.00;;;5.66;75.61
10462;BME280;5278;42.656;23.374;2023-11-19T00:07:19;94564.38;;;5.71;75.62
10462;BME280;5278;42.656;23.374;2023-11-19T00:09:47;94566.47;;;5.67;75.96
10462;BME280;5278;42.656;23.374;2023-11-19T00:12:13;94569.03;;;5.67;76.45
10462;BME280;5278;42.656;23.374;2023-11-19T00:14:40;94498.69;;;5.22;75.15
10462;BME280;5278;42.656;23.374;2023-11-19T00:17:09;94559.53;;;5.68;75.59
10462;BME280;5278;42.656;23.374;2023-11-19T00:19:36;94574.19;;;5.67;75.28
10462;BME280;5278;42.656;23.374;2023-11-19T00:22:03;94581.91;;;5.67;75.53
10462;BME280;5278;42.656;23.374;2023-11-19T00:24:30;94572.25;;;5.69;75.82
10462;BME280;5278;42.656;23.374;2023-11-19T00:26:57;94577.78;;;5.74;75.23
10462;BME280;5278;42.656;23.374;2023-11-19T00:29:24;94469.63;;;5.11;74.92
10462;BME280;5278;42.656;23.374;2023-11-19T00:31:51;94510.88;;;5.19;74.63
10462;BME280;5278;42.656;23.374;2023-11-19T00:34:19;94575.00;;;5.85;74.92
10462;BME280;5278;42.656;23.374;2023-11-19T00:36:49;94471.03;;;5.24;74.62
10462;BME280;5278;42.656;23.374;2023-11-19T00:39:16;94569.13;;;5.93;74.22
10462;BME280;5278;42.656;23.374;2023-11-19T00:41:46;94578.09;;;5.89;74.11
10462;BME280;5278;42.656;23.374;2023-11-19T00:44:13;94573.91;;;5.88;74.20
10462;BME280;5278;42.656;23.374;2023-11-19T00:46:40;94581.53;;;5.80;74.25
10462;BME280;5278;42.656;23.374;2023-11-19T00:49:07;94595.25;;;5.80;74.59
10462;BME280;5278;42.656;23.374;2023-11-19T00:51:38;94596.19;;;5.79;74.59
10462;BME280;5278;42.656;23.374;2023-11-19T00:54:05;94599.59;;;5.80;74.70
10462;BME280;5278;42.656;23.374;2023-11-19T00:56:31;94584.63;;;5.83;74.40
10462;BME280;5278;42.656;23.374;2023-11-19T00:58:58;94572.34;;;5.77;75.01
10462;BME280;5278;42.656;23.374;2023-11-19T01:01:25;94580.66;;;5.71;75.21
10462;BME280;5278;42.656;23.374;2023-11-19T01:03:53;94590.97;;;5.71;75.19
10462;BME280;5278;42.656;23.374;2023-11-19T01:06:27;94583.69;;;5.67;75.29
10462;BME280;5278;42.656;23.374;2023-11-19T01:08:55;94559.81;;;5.47;75.12
10462;BME280;5278;42.656;23.374;2023-11-19T01:11:25;94610.16;;;5.59;75.57
10462;BME280;5278;42.656;23.374;2023-11-19T01:13:52;94603.47;;;5.66;75.86
10462;BME280;5278;42.656;23.374;2023-11-19T01:16:19;94602.59;;;5.75;75.51
10462;BME280;5278;42.656;23.374;2023-11-19T01:18:48;94587.94;;;5.76;75.03
10462;BME280;5278;42.656;23.374;2023-11-19T01:21:15;94578.91;;;5.72;75.07
10462;BME280;5278;42.656;23.374;2023-11-19T01:23:42;94506.69;;;5.18;74.69
10462;BME280;5278;42.656;23.374;2023-11-19T01:26:11;94611.38;;;5.82;74.66
10462;BME280;5278;42.656;23.374;2023-11-19T01:28:38;94590.47;;;5.85;74.60
10462;BME280;5278;42.656;23.374;2023-11-19T01:31:08;94596.72;;;5.83;74.73
10462;BME280;5278;42.656;23.374;2023-11-19T01:33:36;94579.75;;;5.90;74.54
10462;BME280;5278;42.656;23.374;2023-11-19T01:36:04;94582.72;;;5.85;74.51
10462;BME280;5278;42.656;23.374;2023-11-19T01:38:31;94589.28;;;5.80;74.37
10462;BME280;5278;42.656;23.374;2023-11-19T01:40:57;94590.03;;;5.72;74.00
10462;BME280;5278;42.656;23.374;2023-11-19T01:43:43;94582.72;;;5.68;74.38
10462;BME280;5278;42.656;23.374;2023-11-19T01:46:12;94601.84;;;5.65;74.34
10462;BME280;5278;42.656;23.374;2023-11-19T01:48:45;94572.63;;;5.56;74.65
10462;BME280;5278;42.656;23.374;2023-11-19T01:51:12;94591.84;;;5.62;74.61
10462;BME280;5278;42.656;23.374;2023-11-19T01:53:43;94597.94;;;5.61;74.13
10462;BME280;5278;42.656;23.374;2023-11-19T01:56:12;94603.69;;;5.55;74.18
10462;BME280;5278;42.656;23.374;2023-11-19T01:58:40;94608.31;;;5.51;73.84
10462;BME280;5278;42.656;23.374;2023-11-19T02:01:10;94592.75;;;5.43;74.11
10462;BME280;5278;42.656;23.374;2023-11-19T02:03:38;94599.41;;;5.46;73.84
10462;BME280;5278;42.656;23.374;2023-11-19T02:06:05;94596.56;;;5.39;74.24
10462;BME280;5278;42.656;23.374;2023-11-19T02:08:32;94577.94;;;5.28;74.20
10462;BME280;5278;42.656;23.374;2023-11-19T02:10:59;94589.16;;;5.36;73.96
10462;BME280;5278;42.656;23.374;2023-11-19T02:13:28;94594.28;;;5.36;73.73
10462;BME280;5278;42.656;23.374;2023-11-19T02:15:56;94581.56;;;5.35;73.78
10462;BME280;5278;42.656;23.374;2023-11-19T02:18:27;94595.69;;;5.31;73.96
10462;BME280;5278;42.656;23.374;2023-11-19T02:20:54;94590.97;;;5.26;74.20
10462;BME280;5278;42.656;23.374;2023-11-19T02:23:21;94599.56;;;5.35;73.54
10462;BME280;5278;42.656;23.374;2023-11-19T02:26:01;94608.25;;;5.34;73.69
10462;BME280;5278;42.656;23.374;2023-11-19T02:28:30;94610.19;;;5.32;73.76
10462;BME280;5278;42.656;23.374;2023-11-19T02:30:59;94613.69;;;5.31;73.80
10462;BME280;5278;42.656;23.374;2023-11-19T02:33:25;94602.16;;;5.35;73.50
10462;BME280;5278;42.656;23.374;2023-11-19T02:35:54;94595.91;;;5.37;73.49
10462;BME280;5278;42.656;23.374;2023-11-19T02:38:20;94592.38;;;5.38;73.21
10462;BME280;5278;42.656;23.374;2023-11-19T02:40:48;94588.03;;;5.39;73.22
10462;BME280;5278;42.656;23.374;2023-11-19T02:43:15;94593.72;;;5.42;73.33
10462;BME280;5278;42.656;23.374;2023-11-19T02:45:44;94593.28;;;5.47;73.01
10462;BME280;5278;42.656;23.374;2023-11-19T02:48:11;94593.00;;;5.50;72.64
10462;BME280;5278;42.656;23.374;2023-11-19T02:50:39;94588.41;;;5.44;72.63
10462;BME280;5278;42.656;23.374;2023-11-19T02:53:06;94601.44;;;5.42;72.89
10462;BME280;5278;42.656;23.374;2023-11-19T02:55:34;94602.16;;;5.35;72.90
10462;BME280;5278;42.656;23.374;2023-11-19T02:58:04;94594.56;;;5.33;73.58
10462;BME280;5278;42.656;23.374;2023-11-19T03:00:46;94590.97;;;5.26;73.53
10462;BME280;5278;42.656;23.374;2023-11-19T03:03:18;94591.00;;;5.16;73.87
10462;BME280;5278;42.656;23.374;2023-11-19T03:05:48;94589.94;;;5.09;73.94
10462;BME280;5278;42.656;23.374;2023-11-19T03:08:15;94594.53;;;5.15;74.15
10462;BME280;5278;42.656;23.374;2023-11-19T03:10:43;94571.28;;;5.07;74.20
10462;BME280;5278;42.656;23.374;2023-11-19T03:13:12;94571.06;;;5.18;74.02
10462;BME280;5278;42.656;23.374;2023-11-19T03:15:40;94600.25;;;5.09;73.63
10462;BME280;5278;42.656;23.374;2023-11-19T03:18:09;94608.13;;;5.08;73.84
10462;BME280;5278;42.656;23.374;2023-11-19T03:20:36;94605.13;;;5.12;74.30
10462;BME280;5278;42.656;23.374;2023-11-19T03:23:03;94601.44;;;5.15;73.92
10462;BME280;5278;42.656;23.374;2023-11-19T03:25:29;94597.66;;;5.09;73.96
10462;BME280;5278;42.656;23.374;2023-11-19T03:28:00;94601.06;;;5.10;74.67
10462;BME280;5278;42.656;23.374;2023-11-19T03:30:27;94613.09;;;5.09;74.65
10462;BME280;5278;42.656;23.374;2023-11-19T03:32:54;94600.53;;;5.06;74.33
10462;BME280;5278;42.656;23.374;2023-11-19T03:35:23;94547.09;;;4.44;74.72
10462;BME280;5278;42.656;23.374;2023-11-19T03:37:51;94592.69;;;4.98;74.78
10462;BME280;5278;42.656;23.374;2023-11-19T03:40:18;94615.97;;;5.06;74.69
10462;BME280;5278;42.656;23.374;2023-11-19T03:42:45;94602.72;;;5.01;74.42
10462;BME280;5278;42.656;23.374;2023-11-19T03:45:12;94631.09;;;5.19;74.50
10462;BME280;5278;42.656;23.374;2023-11-19T03:47:41;94631.47;;;5.24;74.08
10462;BME280;5278;42.656;23.374;2023-11-19T03:50:08;94450.84;;;4.10;74.12
10462;BME280;5278;42.656;23.374;2023-11-19T03:52:36;94540.69;;;4.67;73.38
10462;BME280;5278;42.656;23.374;2023-11-19T03:55:04;94646.75;;;5.35;73.35
10462;BME280;5278;42.656;23.374;2023-11-19T03:57:33;94636.31;;;5.37;73.39
10462;BME280;5278;42.656;23.374;2023-11-19T04:00:01;94642.16;;;5.29;73.41
10462;BME280;5278;42.656;23.374;2023-11-19T04:02:33;94642.56;;;5.34;73.57
10462;BME280;5278;42.656;23.374;2023-11-19T04:05:00;94632.94;;;5.36;73.64
10462;BME280;5278;42.656;23.374;2023-11-19T04:07:26;94534.06;;;4.55;73.11
10462;BME280;5278;42.656;23.374;2023-11-19T04:09:55;94678.50;;;5.26;73.72
10462;BME280;5278;42.656;23.374;2023-11-19T04:12:21;94633.50;;;5.30;73.36
10462;BME280;5278;42.656;23.374;2023-11-19T04:14:48;94656.00;;;5.28;73.91
10462;BME280;5278;42.656;23.374;2023-11-19T04:17:15;94654.22;;;5.29;73.87
10462;BME280;5278;42.656;23.374;2023-11-19T04:19:42;94641.25;;;5.20;73.91
10462;BME280;5278;42.656;23.374;2023-11-19T04:22:09;94636.78;;;5.23;74.22
10462;BME280;5278;42.656;23.374;2023-11-19T04:24:36;94655.50;;;5.15;74.34
10462;BME280;5278;42.656;23.374;2023-11-19T04:27:05;94646.53;;;5.19;74.25
10462;BME280;5278;42.656;23.374;2023-11-19T04:29:32;94625.97;;;5.09;74.29
10462;BME280;5278;42.656;23.374;2023-11-19T04:31:59;94632.38;;;5.05;74.11
10462;BME280;5278;42.656;23.374;2023-11-19T04:34:26;94650.81;;;5.01;75.27
10462;BME280;5278;42.656;23.374;2023-11-19T04:36:53;94655.00;;;5.02;74.96
10462;BME280;5278;42.656;23.374;2023-11-19T04:39:20;94660.78;;;5.13;74.61
10462;BME280;5278;42.656;23.374;2023-11-19T04:41:48;94655.91;;;5.20;74.38
10462;BME280;5278;42.656;23.374;2023-11-19T04:44:17;94652.78;;;5.16;73.95
10462;BME280;5278;42.656;23.374;2023-11-19T04:46:45;94494.47;;;3.82;73.85
10462;BME280;5278;42.656;23.374;2023-11-19T04:49:13;94663.34;;;5.13;74.15
10462;BME280;5278;42.656;23.374;2023-11-19T04:51:40;94656.03;;;5.18;73.83
10462;BME280;5278;42.656;23.374;2023-11-19T04:54:08;94646.56;;;5.09;73.73
10462;BME280;5278;42.656;23.374;2023-11-19T04:56:35;94661.44;;;5.25;73.31
10462;BME280;5278;42.656;23.374;2023-11-19T04:59:03;94651.44;;;5.22;73.63
10462;BME280;5278;42.656;23.374;2023-11-19T05:01:32;94657.00;;;5.17;73.44
10462;BME280;5278;42.656;23.374;2023-11-19T05:04:00;94654.94;;;5.21;73.65
10462;BME280;5278;42.656;23.374;2023-11-19T05:06:27;94668.75;;;5.20;72.90
10462;BME280;5278;42.656;23.374;2023-11-19T05:08:54;94573.06;;;4.51;73.02
10462;BME280;5278;42.656;23.374;2023-11-19T05:11:21;94694.00;;;5.16;73.31
10462;BME280;5278;42.656;23.374;2023-11-19T05:13:48;94695.34;;;5.20;73.28
10462;BME280;5278;42.656;23.374;2023-11-19T05:16:15;94614.63;;;4.56;72.43
10462;BME280;5278;42.656;23.374;2023-11-19T05:18:44;94700.06;;;5.25;72.45
10462;BME280;5278;42.656;23.374;2023-11-19T05:21:11;94681.00;;;5.18;72.41
10462;BME280;5278;42.656;23.374;2023-11-19T05:23:38;94583.66;;;4.48;72.82
10462;BME280;5278;42.656;23.374;2023-11-19T05:26:06;94692.22;;;5.17;72.65
10462;BME280;5278;42.656;23.374;2023-11-19T05:28:34;94685.31;;;5.17;72.73
10462;BME280;5278;42.656;23.374;2023-11-19T05:31:01;94675.69;;;5.19;72.74
10462;BME280;5278;42.656;23.374;2023-11-19T05:33:27;94675.13;;;5.26;72.62
10462;BME280;5278;42.656;23.374;2023-11-19T05:35:56;94681.09;;;5.26;71.78
10462;BME280;5278;42.656;23.374;2023-11-19T05:38:23;94689.63;;;5.27;72.13
10462;BME280;5278;42.656;23.374;2023-11-19T05:40:50;94705.06;;;5.27;71.73
10462;BME280;5278;42.656;23.374;2023-11-19T05:43:18;94686.66;;;5.22;72.01
10462;BME280;5278;42.656;23.374;2023-11-19T05:45:45;94715.09;;;5.30;71.98
10462;BME280;5278;42.656;23.374;2023-11-19T05:48:12;94683.69;;;5.16;71.95
10462;BME280;5278;42.656;23.374;2023-11-19T05:50:39;94689.38;;;5.20;71.88
10462;BME280;5278;42.656;23.374;2023-11-19T05:53:07;94686.66;;;5.22;72.11
10462;BME280;5278;42.656;23.374;2023-11-19T05:55:35;94679.59;;;5.24;72.38
10462;BME280;5278;42.656;23.374;2023-11-19T05:58:10;94567.00;;;4.52;71.99
10462;BME280;5278;42.656;23.374;2023-11-19T06:00:38;94671.09;;;5.13;72.36
10462;BME280;5278;42.656;23.374;2023-11-19T06:03:05;94696.16;;;5.21;72.38
10462;BME280;5278;42.656;23.374;2023-11-19T06:05:33;94698.28;;;5.26;72.50
10462;BME280;5278;42.656;23.374;2023-11-19T06:08:00;94709.66;;;5.23;72.70
10462;BME280;5278;42.656;23.374;2023-11-19T06:10:30;94726.75;;;5.24;72.26
10462;BME280;5278;42.656;23.374;2023-11-19T06:12:58;94714.03;;;5.23;72.73
10462;BME280;5278;42.656;23.374;2023-11-19T06:15:26;94719.72;;;5.26;72.40
10462;BME280;5278;42.656;23.374;2023-11-19T06:17:57;94715.81;;;5.22;72.41
10462;BME280;5278;42.656;23.374;2023-11-19T06:20:28;94714.56;;;5.26;72.77
10462;BME280;5278;42.656;23.374;2023-11-19T06:22:57;94702.59;;;5.35;72.53
10462;BME280;5278;42.656;23.374;2023-11-19T06:25:24;94709.94;;;5.30;72.15
10462;BME280;5278;42.656;23.374;2023-11-19T06:27:53;94703.94;;;5.39;72.09
10462;BME280;5278;42.656;23.374;2023-11-19T06:30:20;94700.28;;;5.41;71.61
10462;BME280;5278;42.656;23.374;2023-11-19T06:32:47;94714.38;;;5.47;71.55
10462;BME280;5278;42.656;23.374;2023-11-19T06:35:14;94711.81;;;5.37;71.51
10462;BME280;5278;42.656;23.374;2023-11-19T06:37:41;94705.31;;;5.33;71.65
10462;BME280;5278;42.656;23.374;2023-11-19T06:40:09;94715.78;;;5.32;71.64
10462;BME280;5278;42.656;23.374;2023-11-19T06:42:37;94718.72;;;5.37;71.65
10462;BME280;5278;42.656;23.374;2023-11-19T06:45:07;94697.31;;;5.36;71.84
10462;BME280;5278;42.656;23.374;2023-11-19T06:47:34;94718.56;;;5.48;71.27
10462;BME280;5278;42.656;23.374;2023-11-19T06:50:01;94732.25;;;5.39;70.89
10462;BME280;5278;42.656;23.374;2023-11-19T06:52:31;94720.84;;;5.51;71.15
10462;BME280;5278;42.656;23.374;2023-11-19T06:54:58;94712.44;;;5.49;70.98
10462;BME280;5278;42.656;23.374;2023-11-19T06:57:25;94716.94;;;5.47;70.68
10462;BME280;5278;42.656;23.374;2023-11-19T06:59:51;94719.91;;;5.52;70.63
10462;BME280;5278;42.656;23.374;2023-11-19T07:02:20;94720.13;;;5.58;70.26
10462;BME280;5278;42.656;23.374;2023-11-19T07:04:47;94725.06;;;5.52;69.73
10462;BME280;5278;42.656;23.374;2023-11-19T07:07:14;94736.00;;;5.54;70.02
10462;BME280;5278;42.656;23.374;2023-11-19T07:09:41;94728.66;;;5.59;69.75
10462;BME280;5278;42.656;23.374;2023-11-19T07:12:08;94708.53;;;5.45;69.33
10462;BME280;5278;42.656;23.374;2023-11-19T07:14:36;94729.78;;;5.56;69.27
10462;BME280;5278;42.656;23.374;2023-11-19T07:17:04;94730.72;;;5.55;69.50
10462;BME280;5278;42.656;23.374;2023-11-19T07:19:32;94744.47;;;5.74;68.72
10462;BME280;5278;42.656;23.374;2023-11-19T07:22:00;94749.75;;;5.82;68.36
10462;BME280;5278;42.656;23.374;2023-11-19T07:24:27;94711.19;;;5.62;67.80
10462;BME280;5278;42.656;23.374;2023-11-19T07:26:54;94756.94;;;5.88;67.26
10462;BME280;5278;42.656;23.374;2023-11-19T07:29:21;94753.78;;;5.84;67.30
10462;BME280;5278;42.656;23.374;2023-11-19T07:31:48;94761.97;;;5.80;67.71
10462;BME280;5278;42.656;23.374;2023-11-19T07:34:15;94774.84;;;5.89;67.47
10462;BME280;5278;42.656;23.374;2023-11-19T07:36:43;94773.88;;;5.90;67.38
10462;BME280;5278;42.656;23.374;2023-11-19T07:39:10;94690.88;;;5.23;67.16
10462;BME280;5278;42.656;23.374;2023-11-19T07:41:37;94768.06;;;5.88;67.33
10462;BME280;5278;42.656;23.374;2023-11-19T07:44:04;94772.00;;;5.92;66.78
10462;BME280;5278;42.656;23.374;2023-11-19T07:46:31;94791.38;;;5.96;66.32
10462;BME280;5278;42.656;23.374;2023-11-19T07:48:58;94783.47;;;6.08;66.42
10462;BME280;5278;42.656;23.374;2023-11-19T07:51:25;94744.78;;;6.08;65.60
10462;BME280;5278;42.656;23.374;2023-11-19T07:53:53;94736.75;;;6.11;64.73
10462;BME280;5278;42.656;23.374;2023-11-19T07:56:20;94783.00;;;6.39;64.22
10462;BME280;5278;42.656;23.374;2023-11-19T07:58:47;94783.50;;;6.43;63.81
10462;BME280;5278;42.656;23.374;2023-11-19T08:01:15;94782.06;;;6.58;63.84
10462;BME280;5278;42.656;23.374;2023-11-19T08:03:42;94684.56;;;5.72;63.48
10462;BME280;5278;42.656;23.374;2023-11-19T08:06:09;94788.34;;;6.56;63.50
10462;BME280;5278;42.656;23.374;2023-11-19T08:08:37;94791.56;;;6.58;63.57
10462;BME280;5278;42.656;23.374;2023-11-19T08:11:06;94790.03;;;6.82;62.61
10462;BME280;5278;42.656;23.374;2023-11-19T08:13:33;94780.97;;;6.96;61.45
10462;BME280;5278;42.656;23.374;2023-11-19T08:16:00;94793.22;;;7.12;60.77
10462;BME280;5278;42.656;23.374;2023-11-19T08:18:26;94804.88;;;7.16;60.40
10462;BME280;5278;42.656;23.374;2023-11-19T08:20:53;94793.50;;;7.52;58.99
10462;BME280;5278;42.656;23.374;2023-11-19T08:23:21;94799.22;;;7.90;57.67
10462;BME280;5278;42.656;23.374;2023-11-19T08:25:51;94640.38;;;7.58;54.88
10462;BME280;5278;42.656;23.374;2023-11-19T08:28:19;94783.53;;;10.35;49.98
10462;BME280;5278;42.656;23.374;2023-11-19T08:30:46;94774.09;;;12.08;45.14
10462;BME280;5278;42.656;23.374;2023-11-19T08:33:13;94779.19;;;13.88;40.20
10462;BME280;5278;42.656;23.374;2023-11-19T08:35:40;94666.78;;;14.09;37.60
10462;BME280;5278;42.656;23.374;2023-11-19T08:38:07;94768.78;;;15.77;36.05
10462;BME280;5278;42.656;23.374;2023-11-19T08:40:34;94771.84;;;16.64;34.12
10462;BME280;5278;42.656;23.374;2023-11-19T08:43:02;94766.25;;;17.30;32.59
10462;BME280;5278;42.656;23.374;2023-11-19T08:45:31;94766.00;;;19.04;56.51
10462;BME280;5278;42.656;23.374;2023-11-19T08:47:57;94769.53;;;20.85;47.43
10462;BME280;5278;42.656;23.374;2023-11-19T08:50:25;94762.88;;;21.84;43.16
10462;BME280;5278;42.656;23.374;2023-11-19T08:52:52;94749.66;;;21.84;40.44
10462;BME280;5278;42.656;23.374;2023-11-19T08:55:19;94758.97;;;22.04;38.04
10462;BME280;5278;42.656;23.374;2023-11-19T08:57:47;94784.59;;;21.70;34.54
10462;BME280;5278;42.656;23.374;2023-11-19T09:00:15;94779.53;;;21.68;35.42
10462;BME280;5278;42.656;23.374;2023-11-19T09:02:45;94747.72;;;20.78;27.08
10462;BME280;5278;42.656;23.374;2023-11-19T09:05:11;94760.47;;;18.93;28.37
10462;BME280;5278;42.656;23.374;2023-11-19T09:07:39;94759.34;;;17.36;30.07
10462;BME280;5278;42.656;23.374;2023-11-19T09:10:06;94755.47;;;15.85;32.16
10462;BME280;5278;42.656;23.374;2023-11-19T09:12:34;94760.34;;;14.75;34.19
10462;BME280;5278;42.656;23.374;2023-11-19T09:15:01;94646.16;;;13.18;36.17
10462;BME280;5278;42.656;23.374;2023-11-19T09:17:29;94745.28;;;14.29;35.55
10462;BME280;5278;42.656;23.374;2023-11-19T09:19:57;94764.06;;;14.46;35.84
10462;BME280;5278;42.656;23.374;2023-11-19T09:22:24;94759.59;;;14.05;36.27
10462;BME280;5278;42.656;23.374;2023-11-19T09:24:51;94779.09;;;13.26;36.97
10462;BME280;5278;42.656;23.374;2023-11-19T09:27:18;94781.09;;;12.23;38.86
10462;BME280;5278;42.656;23.374;2023-11-19T09:29:46;94777.19;;;11.60;40.75
10462;BME280;5278;42.656;23.374;2023-11-19T09:32:15;94789.69;;;10.96;42.02
10462;BME280;5278;42.656;23.374;2023-11-19T09:34:42;94783.16;;;10.47;44.04
10462;BME280;5278;42.656;23.374;2023-11-19T09:37:10;94773.09;;;10.44;45.31
10462;BME280;5278;42.656;23.374;2023-11-19T09:39:37;94764.31;;;10.06;45.50
10462;BME280;5278;42.656;23.374;2023-11-19T09:42:08;94728.59;;;10.08;45.78
10462;BME280;5278;42.656;23.374;2023-11-19T09:44:37;94737.19;;;12.20;42.50
10462;BME280;5278;42.656;23.374;2023-11-19T09:47:05;94711.84;;;14.18;37.73
10462;BME280;5278;42.656;23.374;2023-11-19T09:49:33;94719.63;;;15.79;34.64
10462;BME280;5278;42.656;23.374;2023-11-19T09:52:02;94717.38;;;15.69;33.16
10462;BME280;5278;42.656;23.374;2023-11-19T09:54:31;94707.91;;;15.22;33.81
10462;BME280;5278;42.656;23.374;2023-11-19T10:32:20;94697.38;;;20.96;25.76
10462;BME280;5278;42.656;23.374;2023-11-19T10:34:47;94687.44;;;21.03;25.16
10462;BME280;5278;42.656;23.374;2023-11-19T10:37:27;94682.63;;;21.00;25.42
10462;BME280;5278;42.656;23.374;2023-11-19T10:39:54;94677.03;;;20.97;25.70
10462;BME280;5278;42.656;23.374;2023-11-19T10:42:21;94681.44;;;21.08;25.74
10462;BME280;5278;42.656;23.374;2023-11-19T10:44:48;94684.63;;;21.22;25.38
10462;BME280;5278;42.656;23.374;2023-11-19T10:47:20;94681.84;;;20.72;25.61
10462;BME280;5278;42.656;23.374;2023-11-19T10:49:48;94689.25;;;20.86;25.75
10462;BME280;5278;42.656;23.374;2023-11-19T10:52:17;94683.28;;;20.79;25.52
10462;BME280;5278;42.656;23.374;2023-11-19T10:54:49;94679.03;;;20.50;25.54
10462;BME280;5278;42.656;23.374;2023-11-19T10:57:19;94675.72;;;20.43;25.74
10462;BME280;5278;42.656;23.374;2023-11-19T10:59:49;94668.59;;;20.43;25.91
10462;BME280;5278;42.656;23.374;2023-11-19T11:02:21;94675.16;;;20.29;26.03
10462;BME280;5278;42.656;23.374;2023-11-19T11:04:49;94687.44;;;20.35;25.80
10462;BME280;5278;42.656;23.374;2023-11-19T11:07:21;94680.31;;;20.24;26.12
10462;BME280;5278;42.656;23.374;2023-11-19T11:09:51;94674.72;;;20.20;26.30
10462;BME280;5278;42.656;23.374;2023-11-19T11:12:21;94666.97;;;19.67;26.55
10462;BME280;5278;42.656;23.374;2023-11-19T11:14:49;94654.94;;;19.71;26.89
10462;BME280;5278;42.656;23.374;2023-11-19T11:17:17;94643.56;;;19.94;26.51
10462;BME280;5278;42.656;23.374;2023-11-19T11:19:46;94652.53;;;19.47;26.79
10462;BME280;5278;42.656;23.374;2023-11-19T11:22:14;94650.25;;;19.09;27.13
10462;BME280;5278;42.656;23.374;2023-11-19T11:25:12;94641.78;;;18.47;27.76
10462;BME280;5278;42.656;23.374;2023-11-19T11:31:04;94643.16;;;18.01;28.29
10462;BME280;5278;42.656;23.374;2023-11-19T11:33:41;94665.34;;;18.05;28.70
10462;BME280;5278;42.656;23.374;2023-11-19T11:36:19;94657.69;;;17.86;28.99
10462;BME280;5278;42.656;23.374;2023-11-19T11:38:48;94659.41;;;16.23;30.53
10462;BME280;5278;42.656;23.374;2023-11-19T11:41:15;94662.75;;;15.86;31.53
10462;BME280;5278;42.656;23.374;2023-11-19T11:43:47;94660.06;;;15.99;31.51
10462;BME280;5278;42.656;23.374;2023-11-19T11:49:28;94636.91;;;15.96;31.60
10462;BME280;5278;42.656;23.374;2023-11-19T11:52:02;94636.03;;;15.31;32.46
10462;BME280;5278;42.656;23.374;2023-11-19T11:54:32;94649.91;;;15.38;32.51
10462;BME280;5278;42.656;23.374;2023-11-19T11:57:17;94646.28;;;15.59;32.32
10462;BME280;5278;42.656;23.374;2023-11-19T11:59:50;94641.69;;;15.28;32.87
10462;BME280;5278;42.656;23.374;2023-11-19T12:02:19;94641.69;;;14.89;33.56
10462;BME280;5278;42.656;23.374;2023-11-19T12:04:48;94642.66;;;14.68;34.00
10462;BME280;5278;42.656;23.374;2023-11-19T12:07:18;94552.63;;;14.03;34.16
10462;BME280;5278;42.656;23.374;2023-11-19T12:09:53;94646.69;;;14.77;33.69
10462;BME280;5278;42.656;23.374;2023-11-19T12:12:26;94645.03;;;14.70;33.88
10462;BME280;5278;42.656;23.374;2023-11-19T12:15:04;94627.34;;;14.58;34.33
10462;BME280;5278;42.656;23.374;2023-11-19T12:17:37;94633.41;;;14.59;34.52
10462;BME280;5278;42.656;23.374;2023-11-19T12:20:06;94622.28;;;14.44;34.53
10462;BME280;5278;42.656;23.374;2023-11-19T12:22:37;94624.00;;;14.17;35.27
10462;BME280;5278;42.656;23.374;2023-11-19T12:25:05;94608.06;;;13.99;35.61
10462;BME280;5278;42.656;23.374;2023-11-19T12:27:32;94627.63;;;13.34;36.66
10462;BME280;5278;42.656;23.374;2023-11-19T12:30:00;94622.59;;;12.83;37.87
10462;BME280;5278;42.656;23.374;2023-11-19T12:32:37;94620.88;;;12.69;38.30
10462;BME280;5278;42.656;23.374;2023-11-19T12:35:05;94620.66;;;12.71;38.51
10462;BME280;5278;42.656;23.374;2023-11-19T12:37:41;94616.22;;;12.65;38.54
10462;BME280;5278;42.656;23.374;2023-11-19T12:40:14;94610.31;;;12.77;38.90
10462;BME280;5278;42.656;23.374;2023-11-19T12:42:43;94585.03;;;12.50;39.06
10462;BME280;5278;42.656;23.374;2023-11-19T12:45:10;94607.59;;;12.43;39.47
10462;BME280;5278;42.656;23.374;2023-11-19T12:47:38;94602.88;;;11.96;40.44
10462;BME280;5278;42.656;23.374;2023-11-19T12:50:06;94611.53;;;11.82;41.00
10462;BME280;5278;42.656;23.374;2023-11-19T12:52:33;94587.56;;;11.57;41.30
10462;BME280;5278;42.656;23.374;2023-11-19T12:55:02;94597.81;;;11.29;42.47
10462;BME280;5278;42.656;23.374;2023-11-19T12:57:39;94606.84;;;10.89;43.35
10462;BME280;5278;42.656;23.374;2023-11-19T13:00:07;94610.28;;;10.67;44.62
10462;BME280;5278;42.656;23.374;2023-11-19T13:02:45;94604.47;;;10.42;44.93
10462;BME280;5278;42.656;23.374;2023-11-19T13:05:26;94601.81;;;10.27;45.98
10462;BME280;5278;42.656;23.374;2023-11-19T13:08:01;94602.84;;;10.18;46.54
10462;BME280;5278;42.656;23.374;2023-11-19T13:10:29;94597.09;;;10.00;46.62
10462;BME280;5278;42.656;23.374;2023-11-19T13:13:03;94490.53;;;9.25;47.17
10462;BME280;5278;42.656;23.374;2023-11-19T13:15:32;94599.34;;;10.03;46.97
10462;BME280;5278;42.656;23.374;2023-11-19T13:17:59;94600.28;;;10.10;47.17
10462;BME280;5278;42.656;23.374;2023-11-19T13:20:26;94606.91;;;10.13;47.62
10462;BME280;5278;42.656;23.374;2023-11-19T13:22:56;94598.31;;;10.12;47.41
10462;BME280;5278;42.656;23.374;2023-11-19T13:25:23;94589.41;;;10.07;47.64
10462;BME280;5278;42.656;23.374;2023-11-19T13:27:52;94577.66;;;9.96;47.46
10462;BME280;5278;42.656;23.374;2023-11-19T13:30:20;94477.72;;;9.24;47.79
10462;BME280;5278;42.656;23.374;2023-11-19T13:32:47;94572.44;;;9.73;48.52
10462;BME280;5278;42.656;23.374;2023-11-19T13:35:14;94578.44;;;9.74;48.50
10462;BME280;5278;42.656;23.374;2023-11-19T13:37:42;94580.06;;;9.67;48.88
10462;BME280;5278;42.656;23.374;2023-11-19T13:40:10;94589.97;;;9.71;49.04
10462;BME280;5278;42.656;23.374;2023-11-19T13:42:39;94586.72;;;9.69;48.71
10462;BME280;5278;42.656;23.374;2023-11-19T13:45:09;94572.50;;;9.57;49.19
10462;BME280;5278;42.656;23.374;2023-11-19T13:47:46;94581.97;;;9.50;49.20
10462;BME280;5278;42.656;23.374;2023-11-19T13:50:14;94597.84;;;9.47;49.43
10462;BME280;5278;42.656;23.374;2023-11-19T13:52:43;94595.09;;;9.48;49.58
10462;BME280;5278;42.656;23.374;2023-11-19T13:55:11;94625.53;;;9.46;50.00
10462;BME280;5278;42.656;23.374;2023-11-19T13:57:39;94595.75;;;9.42;50.47